Terminal Aerodrome Forecast
Issued by NWS

Home | Current Version | Previous Version | Text Only | Print | Product List | Glossary On
Versions: 1 2 3 4 5 6 7 8 9 10 11 12 13 14 15 16 17 18 19 20 21 22 23 24 25 26 27 28
000
FTUS41 KILN 020500
TAFLUK
TAF
KLUK 020539Z 0206/0306 30008KT P6SM BKN018
      TEMPO 0206/0209 SCT018
     FM020900 32005KT P6SM SCT025
     FM021600 00000KT P6SM SCT025 BKN200=

USA.gov is the U.S. government's official web portal to all federal, state and local government web resources and services.